Tiempo atmosférico en la estación meteorológica de Cazorla, Jaén (799 m.)



Fecha
DESCASC
Temp. máxima en grados centígrados (hora)
DESCASC
Temp. mínima en grados centígrados (hora)
DESCASC
Temp. media en grados centígrados
DESCASC
Racha de viento máxima en m/sg (hora)
DESCASC
Velocidad máxima media en intervalos de 10 minutos(hora)
DESCASC
Precipitaciones diarias en mm
DESCASC
Precipitaciones de 00:00 a 06:00 en mm
DESCASC
Precipitaciones de 06:00 a 12:00 en mm
DESCASC
Precipitaciones de 12:00 a 18:00 en mm
DESCASC
Precipitaciones de 18:00 a 24:00 en mm
DESCASC
18-10-2018 20.7 (15:00) 10.2 (23:20) 15.5 -- (--) -- (--) 6.2 0 0 4.6 1.6
17-10-2018 21.2 (15:30) 11.6 (09:20) 16.4 -- (--) -- (--) 0 0 0 0 0
16-10-2018 16.1 (18:40) 10.9 (03:20) 13.5 -- (--) -- (--) 4 1.2 2.8 0 0
15-10-2018 16.5 (15:50) 9.6 (08:20) 13.1 -- (--) -- (--) 2.4 0 0 0 2.4
14-10-2018 23.7 (04:40) 11.6 (00:00) 17.7 -- (--) -- (--) 6.6 0 6.4 0.2 0
13-10-2018 29.1 (16:00) 15.8 (00:00) 22.5 -- (--) -- (--) 0 0 0 0 0
12-10-2018 26.6 (15:50) 14.4 (00:00) 20.5 -- (--) -- (--) 0 0 0 0 0
11-10-2018 23.7 (15:20) 15 (07:00) 19.4 -- (--) -- (--) 0 0 0 0 0
10-10-2018 23.3 (15:50) 12.2 (00:00) 17.7 -- (--) -- (--) 0 0 0 0 0
09-10-2018 19.8 (14:30) 12.7 (08:20) 16.2 -- (--) -- (--) 4.2 0 0 3.8 0.4
08-10-2018 23.1 (15:30) 12.2 (09:10) 17.7 -- (--) -- (--) 0 0 0 0 0
07-10-2018 26.4 (16:20) 16.9 (09:40) 21.6 -- (--) -- (--) 0 0 0 0 0
06-10-2018 28.1 (15:40) 16.5 (10:00) 22.3 -- (--) -- (--) 0 0 0 0 0
05-10-2018 28 (16:00) 15.7 (08:10) 21.8 -- (--) -- (--) 0 0 0 0 0
04-10-2018 27.4 (16:00) 15.4 (00:00) 21.4 -- (--) -- (--) 0 0 0 0 0
03-10-2018 27.7 (16:00) 14.8 (00:00) 21.3 -- (--) -- (--) 0 0 0 0 0
02-10-2018 26.4 (16:00) 13.1 (00:00) 19.8 -- (--) -- (--) 0 0 0 0 0
01-10-2018 27.7 (16:00) 18.3 (00:00) 23 -- (--) -- (--) 0 0 0 0 0
30-09-2018 27.8 (16:10) 17 (00:00) 22.4 -- (--) -- (--) 0 0 0 0 0
29-09-2018 27.8 (16:00) 15 (00:00) 21.4 -- (--) -- (--) 0 0 0 0 0
28-09-2018 27.4 (16:00) 15.1 (00:00) 21.3 -- (--) -- (--) 0 0 0 0 0
27-09-2018 28.5 (16:10) 17.8 (00:00) 23.1 -- (--) -- (--) 0 0 0 0 0
26-09-2018 27 (17:10) 19 (00:00) 23 -- (--) -- (--) 0 0 0 0 0
25-09-2018 32.9 (15:50) 20.1 (00:00) 26.5 -- (--) -- (--) 0 0 0 0 0
24-09-2018 33.7 (16:10) 20.8 (00:00) 27.3 -- (--) -- (--) 0 0 0 0 0
23-09-2018 32.3 (16:00) 19.9 (08:30) 26.1 -- (--) -- (--) 0 0 0 0 0
22-09-2018 31.8 (16:10) 20.3 (07:50) 26 -- (--) -- (--) 0 0 0 0 0
21-09-2018 31.2 (16:00) 19.2 (08:20) 25.2 -- (--) -- (--) 0.4 0 0 0 0.4
20-09-2018 -- (--) -- (--) -- -- (--) -- (--) -- -- -- -- --

Gráficas

Temp. máximas Temp. mínimas Temp. medias Precipitaciones Rachas de viento máximas Velocidades máximas media en intervalos de 10 minutos

Datos horarios

Fecha y hora oficial Temperatura (ºC) Velocidad del viento (km/h) Dirección del viento Racha (km/h) Dirección de racha Precipitación (mm) Presión (hPa) Tendencia (hPa) Humedad (%)
2018-09-28 01:00:00 16.8 -- -- -- -- -- -- -- 64
2018-09-28 00:00:00 17.7 -- -- -- -- -- -- -- 61
2018-09-27 23:00:00 19 -- -- -- -- -- -- -- 57
2018-09-27 22:00:00 19.8 -- -- -- -- -- -- -- 53
2018-09-27 21:00:00 20.5 -- -- -- -- -- -- -- 50
2018-09-27 20:00:00 21.6 -- -- -- -- -- -- -- 47
2018-09-27 19:00:00 22.1 -- -- -- -- -- -- -- 46
2018-09-27 18:00:00 23.5 -- -- -- -- -- -- -- 44
2018-09-27 17:00:00 23.2 -- -- -- -- -- -- -- 44
2018-09-27 16:00:00 25.3 -- -- -- -- -- -- -- 41
2018-09-27 15:00:00 24.1 -- -- -- -- -- -- -- 42
2018-09-27 14:00:00 23.2 -- -- -- -- -- -- -- 50
2018-09-27 13:00:00 21.6 -- -- -- -- -- -- -- 57
2018-09-27 12:00:00 20 -- -- -- -- -- -- -- 61
2018-09-27 11:00:00 18.4 -- -- -- -- -- -- -- 66
2018-09-27 10:00:00 16.2 -- -- -- -- -- -- -- 78
2018-09-27 09:00:00 16 -- -- -- -- -- -- -- 78
2018-09-27 08:00:00 15.7 -- -- -- -- -- -- -- 75
2018-09-27 07:00:00 16.3 -- -- -- -- -- -- -- 71
2018-09-27 06:00:00 16.3 -- -- -- -- -- -- -- 71
2018-09-27 05:00:00 17 -- -- -- -- -- -- -- 69
2018-09-27 04:00:00 17.5 -- -- -- -- -- -- -- 65
2018-09-27 03:00:00 18.2 -- -- -- -- -- -- -- 61
2018-09-27 02:00:00 18.6 -- -- -- -- -- -- -- 60
2018-09-27 01:00:00 18.8 -- -- -- -- -- -- -- 58
2018-09-27 00:00:00 18.9 -- -- -- -- -- -- -- 58
2018-09-26 23:00:00 19.3 -- -- -- -- -- -- -- 57
2018-09-26 22:00:00 19.6 -- -- -- -- -- -- -- 57
2018-09-26 21:00:00 20.3 -- -- -- -- -- -- -- 53
2018-09-26 20:00:00 21.3 -- -- -- -- -- -- -- 49
2018-09-26 19:00:00 22.6 -- -- -- -- -- -- -- 47
2018-09-26 18:00:00 23.7 -- -- -- -- -- -- -- 44
2018-09-26 17:00:00 24.1 -- -- -- -- -- -- -- 45
2018-09-26 16:00:00 24.3 -- -- -- -- -- -- -- 55
2018-09-26 15:00:00 23.4 -- -- -- -- -- -- -- 60
2018-09-26 14:00:00 22.2 -- -- -- -- -- -- -- 66
2018-09-26 13:00:00 20.6 -- -- -- -- -- -- -- 69
2018-09-26 12:00:00 19.9 -- -- -- -- -- -- -- 75
2018-09-26 11:00:00 18.6 -- -- -- -- -- -- -- 81
2018-09-26 10:00:00 17.1 -- -- -- -- -- -- -- 84
2018-09-26 09:00:00 16.9 -- -- -- -- -- -- -- 84
2018-09-26 08:00:00 17.1 -- -- -- -- -- -- -- 83
2018-09-26 07:00:00 17.1 -- -- -- -- -- -- -- 81
2018-09-26 06:00:00 17.6 -- -- -- -- -- -- -- 79
2018-09-26 05:00:00 17.6 -- -- -- -- -- -- -- 76
2018-09-26 04:00:00 19.3 -- -- -- -- -- -- -- 64
2018-09-26 03:00:00 20.2 -- -- -- -- -- -- -- 61
2018-09-26 02:00:00 20.1 -- -- -- -- -- -- -- 60
2018-09-26 01:00:00 21.2 -- -- -- -- -- -- -- 55
2018-09-26 00:00:00 21.3 -- -- -- -- -- -- -- 52
2018-09-25 23:00:00 23 -- -- -- -- -- -- -- 47
2018-09-25 22:00:00 24.4 -- -- -- -- -- -- -- 43
2018-09-25 21:00:00 24.7 -- -- -- -- -- -- -- 45
2018-09-25 20:00:00 25.7 -- -- -- -- -- -- -- 37
2018-09-25 19:00:00 27.1 -- -- -- -- -- -- -- 33
2018-09-25 18:00:00 27.9 -- -- -- -- -- -- -- 32
2018-09-25 17:00:00 28.7 -- -- -- -- -- -- -- 33
2018-09-25 16:00:00 29.1 -- -- -- -- -- -- -- 34
2018-09-25 15:00:00 27.7 -- -- -- -- -- -- -- 36
2018-09-25 14:00:00 27.4 -- -- -- -- -- -- -- 41
2018-09-25 13:00:00 24 -- -- -- -- -- -- -- 45
2018-09-25 12:00:00 21.6 -- -- -- -- -- -- -- 49
2018-09-25 11:00:00 20.5 -- -- -- -- -- -- -- 52
2018-09-25 10:00:00 18.4 -- -- -- -- -- -- -- 56
2018-09-25 09:00:00 18.2 -- -- -- -- -- -- -- 54
2018-09-25 08:00:00 17.9 -- -- -- -- -- -- -- 54
2018-09-25 07:00:00 17.7 -- -- -- -- -- -- -- 53
2018-09-25 06:00:00 18.4 -- -- -- -- -- -- -- 49
2018-09-25 05:00:00 20 -- -- -- -- -- -- -- 45
2018-09-25 04:00:00 21.4 -- -- -- -- -- -- -- 42
2018-09-25 03:00:00 20.4 -- -- -- -- -- -- -- 44
2018-09-25 02:00:00 21.4 -- -- -- -- -- -- -- 42
2018-09-25 01:00:00 22.4 -- -- -- -- -- -- -- 41
2018-09-25 00:00:00 22.8 -- -- -- -- -- -- -- 40
2018-09-24 23:00:00 25.4 -- -- -- -- -- -- -- 36
2018-09-24 22:00:00 25.7 -- -- -- -- -- -- -- 36
2018-09-24 21:00:00 25.5 -- -- -- -- -- -- -- 37
2018-09-24 20:00:00 26.5 -- -- -- -- -- -- -- 38
2018-09-24 19:00:00 28.1 -- -- -- -- -- -- -- 36
2018-09-24 18:00:00 28.9 -- -- -- -- -- -- -- 34
2018-09-24 17:00:00 29.8 -- -- -- -- -- -- -- 33
2018-09-24 16:00:00 31.5 -- -- -- -- -- -- -- 34
2018-09-24 15:00:00 28.9 -- -- -- -- -- -- -- 36
2018-09-24 14:00:00 28.1 -- -- -- -- -- -- -- 40
2018-09-24 13:00:00 25.1 -- -- -- -- -- -- -- 44
2018-09-24 12:00:00 22.9 -- -- -- -- -- -- -- 49
2018-09-24 11:00:00 20.8 -- -- -- -- -- -- -- 49
2018-09-24 10:00:00 18.7 -- -- -- -- -- -- -- 54
2018-09-24 09:00:00 19.1 -- -- -- -- -- -- -- 50
2018-09-24 08:00:00 19.3 -- -- -- -- -- -- -- 48
2018-09-24 07:00:00 19.2 -- -- -- -- -- -- -- 48
2018-09-24 06:00:00 19.2 -- -- -- -- -- -- -- 48
2018-09-24 05:00:00 18.8 -- -- -- -- -- -- -- 48
2018-09-24 04:00:00 20.4 -- -- -- -- -- -- -- 44
2018-09-24 03:00:00 20.8 -- -- -- -- -- -- -- 43
2018-09-24 02:00:00 22.2 -- -- -- -- -- -- -- 41
2018-09-24 01:00:00 22.6 -- -- -- -- -- -- -- 39
2018-09-24 00:00:00 23.5 -- -- -- -- -- -- -- 38
2018-09-23 23:00:00 24.8 -- -- -- -- -- -- -- 35
2018-09-23 22:00:00 25.3 -- -- -- -- -- -- -- 34
2018-09-23 21:00:00 25.4 -- -- -- -- -- -- -- 34
2018-09-23 20:00:00 26.3 -- -- -- -- -- -- -- 34
2018-09-23 19:00:00 27.3 -- -- -- -- -- -- -- 36
2018-09-23 18:00:00 27.8 -- -- -- -- -- -- -- 34
2018-09-23 17:00:00 28.6 -- -- -- -- -- -- -- 35
2018-09-23 16:00:00 28.8 -- -- -- -- -- -- -- 33
2018-09-23 15:00:00 28.1 -- -- -- -- -- -- -- 36
2018-09-23 14:00:00 26.7 -- -- -- -- -- -- -- 39
2018-09-23 13:00:00 24.7 -- -- -- -- -- -- -- 45
2018-09-23 12:00:00 22.4 -- -- -- -- -- -- -- 50
2018-09-23 11:00:00 20.5 -- -- -- -- -- -- -- 52
2018-09-23 10:00:00 18.1 -- -- -- -- -- -- -- 60
2018-09-23 09:00:00 18.1 -- -- -- -- -- -- -- 56
2018-09-23 08:00:00 17.9 -- -- -- -- -- -- -- 53
2018-09-23 07:00:00 18.6 -- -- -- -- -- -- -- 52
2018-09-23 06:00:00 19.3 -- -- -- -- -- -- -- 49
2018-09-23 05:00:00 19.3 -- -- -- -- -- -- -- 50
2018-09-23 04:00:00 20.4 -- -- -- -- -- -- -- 46
2018-09-23 03:00:00 20.5 -- -- -- -- -- -- -- 46
2018-09-23 02:00:00 21.6 -- -- -- -- -- -- -- 44
2018-09-23 01:00:00 23.2 -- -- -- -- -- -- -- 41
2018-09-23 00:00:00 24.2 -- -- -- -- -- -- -- 39
2018-09-22 23:00:00 24.6 -- -- -- -- -- -- -- 40
2018-09-22 22:00:00 24.7 -- -- -- -- -- -- -- 40
2018-09-22 21:00:00 25.4 -- -- -- -- -- -- -- 37
2018-09-22 20:00:00 25.9 -- -- -- -- -- -- -- 37
2018-09-22 19:00:00 27.5 -- -- -- -- -- -- -- 36
2018-09-22 18:00:00 28.3 -- -- -- -- -- -- -- 35
2018-09-22 17:00:00 28.3 -- -- -- -- -- -- -- 35
2018-09-22 16:00:00 29.6 -- -- -- -- -- -- -- 37
2018-09-22 15:00:00 26.7 -- -- -- -- -- -- -- 41
2018-09-22 14:00:00 26.2 -- -- -- -- -- -- -- 45
2018-09-22 13:00:00 23.8 -- -- -- -- -- -- -- 49
2018-09-22 12:00:00 22.2 -- -- -- -- -- -- -- 53
2018-09-22 11:00:00 20.3 -- -- -- -- -- -- -- 61
2018-09-22 10:00:00 19.3 -- -- -- -- -- -- -- 60
2018-09-22 09:00:00 19 -- -- -- -- -- -- -- 58
2018-09-22 08:00:00 18.7 -- -- -- -- -- -- -- 59
2018-09-22 07:00:00 18.3 -- -- -- -- -- -- -- 59
2018-09-22 06:00:00 19.2 -- -- -- -- -- -- -- 57
2018-09-22 05:00:00 19.7 -- -- -- -- -- -- -- 57
2018-09-22 04:00:00 19.9 -- -- -- -- -- -- -- 57
2018-09-22 03:00:00 20.4 -- -- -- -- -- -- -- 54
2018-09-22 02:00:00 21.2 -- -- -- -- -- -- -- 53
2018-09-22 01:00:00 21.7 -- -- -- -- -- -- -- 51
2018-09-22 00:00:00 22 -- -- -- -- -- -- -- 49
2018-09-21 23:00:00 22.3 -- -- -- -- -- -- -- 50
2018-09-21 22:00:00 22.6 -- -- -- -- -- -- -- 53
2018-09-21 21:00:00 21.7 -- -- -- -- -- -- -- 58
2018-09-21 20:00:00 20.5 -- -- -- -- -- -- -- 69
2018-09-21 19:00:00 25.5 -- -- -- -- -- -- -- 45
2018-09-21 18:00:00 25.3 -- -- -- -- -- -- -- 49
2018-09-21 17:00:00 26.4 -- -- -- -- -- -- -- 45
2018-09-21 16:00:00 29 -- -- -- -- -- -- -- 44
2018-09-21 15:00:00 26.5 -- -- -- -- -- -- -- 48
2018-09-21 14:00:00 24 -- -- -- -- -- -- -- 53
2018-09-21 13:00:00 22.3 -- -- -- -- -- -- -- 62
2018-09-21 12:00:00 20.1 -- -- -- -- -- -- -- 68
2018-09-21 11:00:00 18.6 -- -- -- -- -- -- -- 73
2018-09-21 10:00:00 17.2 -- -- -- -- -- -- -- 77
2018-09-21 09:00:00 17 -- -- -- -- -- -- -- 73
2018-09-21 08:00:00 16.9 -- -- -- -- -- -- -- 71
2018-09-21 07:00:00 17.1 -- -- -- -- -- -- -- 66
2018-09-21 06:00:00 17.8 -- -- -- -- -- -- -- 63
2018-09-21 05:00:00 18 -- -- -- -- -- -- -- 62
2018-09-21 04:00:00 19.5 -- -- -- -- -- -- -- 58
2018-09-21 03:00:00 19.9 -- -- -- -- -- -- -- 55
2018-09-21 02:00:00 20.2 -- -- -- -- -- -- -- 54
2018-09-21 01:00:00 20.3 -- -- -- -- -- -- -- 53
2018-09-21 00:00:00 21.1 -- -- -- -- -- -- -- 49
2018-09-20 23:00:00 22 -- -- -- -- -- -- -- 48
2018-09-20 22:00:00 22.4 -- -- -- -- -- -- -- 47
2018-09-20 21:00:00 23.6 -- -- -- -- -- -- -- 43
2018-09-20 20:00:00 25.2 -- -- -- -- -- -- -- 40
2018-09-20 19:00:00 26.1 -- -- -- -- -- -- -- 39
2018-09-20 18:00:00 26.4 -- -- -- -- -- -- -- 39
2018-09-20 17:00:00 26.8 -- -- -- -- -- -- -- 40
2018-09-20 16:00:00 28.2 -- -- -- -- -- -- -- 41
2018-09-20 15:00:00 -- -- -- -- -- -- -- -- --
2018-09-20 14:00:00 -- -- -- -- -- -- -- -- --
2018-09-20 13:00:00 -- -- -- -- -- -- -- -- --
2018-09-20 12:00:00 -- -- -- -- -- -- -- -- --
2018-09-20 11:00:00 18.9 -- -- -- -- -- -- -- 66
2018-09-20 10:00:00 -- -- -- -- -- -- -- -- --
2018-09-20 09:00:00 -- -- -- -- -- -- -- -- --
2018-09-20 08:00:00 -- -- -- -- -- -- -- -- --
2018-09-20 07:00:00 -- -- -- -- -- -- -- -- --
2018-09-20 06:00:00 -- -- -- -- -- -- -- -- 71
2018-09-20 05:00:00 -- -- -- -- -- -- -- -- --
2018-09-20 04:00:00 17.2 -- -- -- -- -- -- -- 65
2018-09-20 03:00:00 18.6 -- -- -- -- -- -- -- 60
2018-09-20 02:00:00 18.4 -- -- -- -- -- -- -- 62
2018-09-20 01:00:00 19 -- -- -- -- -- -- -- 60
2018-09-20 00:00:00 19.5 -- -- -- -- -- -- -- 60